Time;durP1;ratioP1;P1;durP2;ratioP2;P2;SDS_P1;SDS_P2;PMS_P1;PMS_P2;Temp;Humidity;BMP_temperature;BMP_pressure;BME280_temperature;BME280_humidity;BME280_pressure;Samples;Min_cycle;Max_cycle;Signal;HPM_P1;HPM_P2
2021/05/13 00:02:02;;;;;;;10.55;1.92;;;;;;;11.50;61.15;99828.83;1715080;82;21152;-92
2021/05/13 00:04:29;;;;;;;3.22;0.88;;;;;;;11.46;61.22;99829.47;1714079;82;21086;-93
2021/05/13 00:06:55;;;;;;;;;;;;;;;11.49;61.30;99823.20;1703079;82;21126;-93
2021/05/13 00:09:22;;;;;;;18.67;3.17;;;;;;;11.57;61.36;99825.36;1712044;82;20284;-93
2021/05/13 00:11:51;;;;;;;6.62;0.95;;;;;;;11.48;61.88;99824.73;1680840;82;21084;-93
2021/05/13 00:14:17;;;;;;;4.60;0.70;;;;;;;11.42;62.24;99825.58;1689744;82;21085;-92
2021/05/13 00:16:45;;;;;;;6.97;1.20;;;;;;;11.36;62.26;99818.37;1752117;80;21061;-93
2021/05/13 00:19:14;;;;;;;3.60;1.27;;;;;;;11.34;62.36;99817.76;1721715;80;21112;-93
2021/05/13 00:21:43;;;;;;;8.47;1.07;;;;;;;11.33;62.76;99816.95;1748289;79;21147;-93
2021/05/13 00:24:13;;;;;;;5.33;0.70;;;;;;;11.33;62.49;99819.61;1762396;79;21084;-91
2021/05/13 00:26:48;;;;;;;1.53;0.40;;;;;;;11.37;62.38;99812.84;1762325;79;21048;-93
2021/05/13 00:29:25;;;;;;;0.40;0.20;;;;;;;11.49;62.37;99814.39;1753727;80;21213;-91
2021/05/13 00:31:46;;;;;;;0.20;0.20;;;;;;;11.52;61.97;99818.48;1721084;80;21111;-92
2021/05/13 00:34:12;;;;;;;0.98;0.30;;;;;;;11.50;62.08;99816.82;1726294;81;21068;-89
2021/05/13 00:36:41;;;;;;;0.75;0.20;;;;;;;11.52;62.10;99807.80;1716680;82;21914;-93
2021/05/13 00:39:09;;;;;;;2.60;0.30;;;;;;;11.49;62.66;99803.19;1690468;82;21118;-93
2021/05/13 00:41:37;;;;;;;3.83;0.50;;;;;;;11.45;62.59;99801.97;1698251;82;21161;-93
2021/05/13 00:44:06;;;;;;;0.90;0.47;;;;;;;11.42;62.74;99797.03;1710047;81;21084;-93
2021/05/13 00:46:33;;;;;;;0.70;0.40;;;;;;;11.38;63.03;99791.81;1743674;81;21112;-94
2021/05/13 00:49:09;;;;;;;3.47;0.63;;;;;;;11.39;63.12;99798.77;1757327;79;21084;-93
2021/05/13 00:51:36;;;;;;;1.03;0.50;;;;;;;11.47;62.91;99796.40;1764367;79;21071;-93
2021/05/13 00:54:04;;;;;;;0.82;0.80;;;;;;;11.51;62.99;99788.31;1762018;80;21163;-94
2021/05/13 00:56:31;;;;;;;6.33;0.70;;;;;;;11.48;63.21;99797.53;1755168;79;21179;-92
2021/05/13 00:59:03;;;;;;;1.90;1.03;;;;;;;11.46;63.34;99794.77;1756472;79;22151;-88
2021/05/13 01:01:37;;;;;;;2.27;0.80;;;;;;;11.43;63.60;99793.35;1768295;79;21064;-93
2021/05/13 01:03:55;;;;;;;1.83;0.73;;;;;;;11.38;64.01;99785.66;1760379;78;21112;-93
2021/05/13 01:06:21;;;;;;;0.60;0.57;;;;;;;11.37;64.22;99784.81;1749006;81;21057;-92
2021/05/13 01:08:48;;;;;;;4.28;0.95;;;;;;;11.43;64.36;99776.50;1749945;79;21165;-93
2021/05/13 01:11:15;;;;;;;1.97;1.43;;;;;;;11.42;64.80;99781.02;1753427;80;21164;-94
2021/05/13 01:13:59;;;;;;;1.87;1.67;;;;;;;11.32;65.14;99781.97;1753106;80;21143;-94
2021/05/13 01:16:27;;;;;;;1.37;1.13;;;;;;;11.26;65.36;99788.11;1746726;79;21129;-93
2021/05/13 01:18:51;;;;;;;2.17;1.93;;;;;;;11.18;65.70;99777.14;1752182;78;21227;-95
2021/05/13 01:21:16;;;;;;;2.05;1.22;;;;;;;11.13;65.96;99782.26;1725189;81;21124;-92
2021/05/13 01:23:43;;;;;;;2.70;1.17;;;;;;;11.14;66.05;99777.77;1726285;81;21175;-92
2021/05/13 01:26:10;;;;;;;1.60;1.47;;;;;;;11.19;65.97;99780.13;1750649;80;21634;-92
2021/05/13 01:28:36;;;;;;;2.47;2.17;;;;;;;11.17;66.39;99772.84;1736769;80;21734;-93
2021/05/13 01:31:02;;;;;;;4.50;2.00;;;;;;;11.09;66.46;99770.37;1713159;81;21090;-91
2021/05/13 01:33:28;;;;;;;4.17;2.90;;;;;;;11.04;66.74;99769.66;1767078;79;21696;-92
2021/05/13 01:35:55;;;;;;;3.40;2.50;;;;;;;10.98;66.94;99766.98;1794834;79;21621;-92
2021/05/13 01:38:24;;;;;;;3.07;2.77;;;;;;;10.89;67.69;99765.05;1785091;78;21620;-90
2021/05/13 01:40:58;;;;;;;4.30;3.20;;;;;;;10.91;67.39;99765.66;1768531;79;21903;-91
2021/05/13 01:43:28;;;;;;;7.40;4.33;;;;;;;10.90;67.37;99770.16;1752572;79;21120;-91
2021/05/13 01:45:59;;;;;;;6.00;4.20;;;;;;;10.86;67.68;99770.78;1758998;79;21096;-92
2021/05/13 01:48:27;;;;;;;11.20;6.40;;;;;;;10.78;68.25;99769.13;1776673;79;21074;-93
2021/05/13 01:50:53;;;;;;;11.03;5.10;;;;;;;10.65;68.78;99769.93;1766944;79;21146;-92
2021/05/13 01:53:20;;;;;;;10.38;4.35;;;;;;;10.64;68.61;99773.64;1734895;80;21221;-92
2021/05/13 01:55:47;;;;;;;12.00;5.53;;;;;;;10.69;69.03;99773.83;1764948;79;21107;-91
2021/05/13 01:58:13;;;;;;;9.57;4.93;;;;;;;10.67;68.96;99773.73;1749419;78;21126;-91
2021/05/13 02:00:43;;;;;;;;;;;;;;;10.61;68.97;99775.36;1786880;78;21173;-93
2021/05/13 02:03:08;;;;;;;6.90;4.73;;;;;;;10.61;69.20;99769.22;1746964;79;20253;-93
2021/05/13 02:05:34;;;;;;;8.23;3.80;;;;;;;10.53;69.29;99772.89;1756154;80;21207;-92
2021/05/13 02:08:00;;;;;;;8.30;4.35;;;;;;;10.57;69.21;99776.80;1754189;79;21182;-90
2021/05/13 02:10:26;;;;;;;5.50;3.70;;;;;;;10.64;69.13;99772.79;1772849;79;21748;-92
2021/05/13 02:12:56;;;;;;;7.80;3.17;;;;;;;10.69;68.93;99775.16;1762442;79;21020;-93
2021/05/13 02:15:21;;;;;;;7.47;4.40;;;;;;;10.66;69.00;99780.91;1768371;79;21116;-92
2021/05/13 02:19:42;;;;;;;26.77;8.60;;;;;;;10.69;69.03;99764.50;1773983;79;22981;-92
2021/05/13 02:22:08;;;;;;;26.60;9.08;;;;;;;10.67;69.04;99763.88;1717799;79;21451;-92
2021/05/13 02:24:35;;;;;;;31.90;9.65;;;;;;;10.75;68.87;99767.38;1718492;82;22367;-93
2021/05/13 02:27:01;;;;;;;24.35;7.55;;;;;;;10.85;68.58;99767.30;1722517;82;21120;-91
2021/05/13 02:29:27;;;;;;;26.02;6.95;;;;;;;10.89;68.54;99769.05;1720021;82;20992;-93
2021/05/13 02:31:53;;;;;;;22.75;8.15;;;;;;;10.81;68.98;99769.23;1716847;82;21118;-92
2021/05/13 02:34:19;;;;;;;22.10;7.37;;;;;;;10.78;68.75;99766.98;1714964;82;21748;-92
2021/05/13 02:36:45;;;;;;;23.38;7.62;;;;;;;10.77;68.75;99769.33;1715696;83;21063;-94
2021/05/13 02:39:11;;;;;;;16.40;5.53;;;;;;;10.81;68.68;99766.06;1727979;82;21082;-92
2021/05/13 02:41:38;;;;;;;;;;;;;;;10.88;68.48;99764.73;1717765;82;21042;-93
2021/05/13 02:44:05;;;;;;;7.33;3.02;;;;;;;10.85;68.37;99770.45;1696220;83;20187;-92
2021/05/13 02:46:31;;;;;;;5.97;2.47;;;;;;;10.74;68.50;99772.39;1716227;82;21560;-93
2021/05/13 02:48:57;;;;;;;2.60;2.25;;;;;;;10.69;68.58;99777.83;1719528;82;21054;-92
2021/05/13 02:51:23;;;;;;;2.08;1.92;;;;;;;10.60;68.69;99775.55;1696467;82;21018;-91
2021/05/13 02:53:50;;;;;;;3.95;2.50;;;;;;;10.52;68.64;99769.91;1723023;82;21157;-92
2021/05/13 02:56:16;;;;;;;;;;;;;;;10.54;68.41;99765.19;1704929;82;21073;-90
2021/05/13 02:58:43;;;;;;;3.33;1.60;;;;;;;10.51;68.50;99773.09;1673245;84;20217;-91
2021/05/13 03:03:41;;;;;;;1.87;1.63;;;;;;;10.36;68.97;99758.28;1646351;85;21219;-92
2021/05/13 03:06:08;;;;;;;3.62;1.85;;;;;;;10.37;69.16;99757.27;1656887;85;21080;-94
2021/05/13 03:08:35;;;;;;;3.30;1.98;;;;;;;10.47;69.07;99759.87;1643313;85;21172;-94
2021/05/13 03:11:01;;;;;;;4.90;3.07;;;;;;;10.59;68.77;99759.27;1641330;85;21156;-92
2021/05/13 03:13:28;;;;;;;11.20;5.22;;;;;;;10.61;68.70;99759.37;1656594;85;21073;-93
2021/05/13 03:15:54;;;;;;;;;;;;;;;10.60;68.70;99765.71;1658410;85;21147;-93
2021/05/13 03:18:24;;;;;;;6.63;4.03;;;;;;;10.61;68.73;99768.70;1632688;85;20187;-92
2021/05/13 03:21:15;;;;;;;7.47;3.67;;;;;;;10.56;68.82;99769.00;1635801;86;21157;-91
2021/05/13 03:23:22;;;;;;;10.03;3.10;;;;;;;10.66;68.71;99768.08;1638771;84;21119;-92
2021/05/13 03:25:51;;;;;;;8.80;3.00;;;;;;;10.84;68.22;99770.16;1614610;87;21098;-92
2021/05/13 03:28:13;;;;;;;5.10;3.10;;;;;;;10.86;67.89;99776.92;1645227;84;21118;-90
2021/05/13 03:30:45;;;;;;;2.60;2.40;;;;;;;10.77;68.06;99779.47;1612091;87;21217;-92
2021/05/13 03:33:13;;;;;;;3.77;2.50;;;;;;;10.71;68.22;99785.10;1641554;86;21147;-92
2021/05/13 03:35:40;;;;;;;4.27;2.97;;;;;;;10.68;68.37;99784.69;1612111;88;21208;-92
2021/05/13 03:38:08;;;;;;;4.87;3.33;;;;;;;10.76;68.20;99779.70;1641170;86;21036;-92
2021/05/13 03:40:37;;;;;;;3.80;3.23;;;;;;;10.85;67.96;99774.45;1639766;86;21094;-93
2021/05/13 03:43:04;;;;;;;5.63;2.83;;;;;;;10.88;67.82;99779.39;1637024;86;21187;-91
2021/05/13 03:45:31;;;;;;;3.53;3.23;;;;;;;10.88;67.82;99775.39;1610650;88;21089;-93
2021/05/13 03:48:02;;;;;;;4.33;3.70;;;;;;;10.87;67.94;99779.91;1640556;86;21051;-94
2021/05/13 03:50:25;;;;;;;14.63;5.97;;;;;;;10.92;67.98;99788.62;1625375;87;21141;-94
2021/05/13 03:52:51;;;;;;;18.40;7.53;;;;;;;11.01;67.76;99782.58;1642538;86;21127;-91
2021/05/13 03:55:17;;;;;;;15.05;8.20;;;;;;;11.01;67.75;99786.06;1605839;87;21171;-91
2021/05/13 03:57:43;;;;;;;10.90;9.05;;;;;;;10.94;67.99;99787.90;1577404;90;21682;-93
2021/05/13 04:00:12;;;;;;;9.33;8.48;;;;;;;10.82;68.49;99790.36;1637545;87;21062;-92
2021/05/13 04:02:41;;;;;;;9.27;6.50;;;;;;;10.82;68.34;99794.35;1628453;87;21227;-92
2021/05/13 04:05:08;;;;;;;9.83;8.87;;;;;;;10.88;68.31;99794.05;1641309;85;21323;-89
2021/05/13 04:07:37;;;;;;;9.63;7.93;;;;;;;10.96;68.07;99797.03;1638303;86;21663;-91
2021/05/13 04:10:07;;;;;;;9.33;7.43;;;;;;;10.98;68.01;99794.98;1642308;86;21166;-87
2021/05/13 04:12:39;;;;;;;7.77;7.00;;;;;;;10.99;67.96;99800.11;1634264;84;21111;-94
2021/05/13 04:15:09;;;;;;;12.67;7.90;;;;;;;11.01;67.85;99796.73;1667103;84;22185;-93
2021/05/13 04:17:37;;;;;;;15.60;8.07;;;;;;;11.06;67.82;99794.28;1676733;84;21450;-93
2021/05/13 04:20:07;;;;;;;11.87;7.77;;;;;;;11.20;67.50;99799.61;1661729;85;21102;-93
2021/05/13 04:22:35;;;;;;;13.33;8.93;;;;;;;11.24;67.36;99799.50;1662465;85;21024;-93
2021/05/13 04:25:03;;;;;;;21.10;12.43;;;;;;;11.24;67.32;99792.31;1639153;85;21056;-96
2021/05/13 04:27:29;;;;;;;19.87;11.93;;;;;;;11.24;67.42;99790.98;1655944;85;21168;-88
2021/05/13 04:29:55;;;;;;;18.42;11.22;;;;;;;11.24;67.45;99790.16;1641697;85;21091;-93
2021/05/13 04:32:22;;;;;;;22.95;12.07;;;;;;;11.19;67.66;99794.80;1669605;85;21056;-92
2021/05/13 04:34:48;;;;;;;27.73;10.35;;;;;;;11.27;67.47;99788.43;1652660;84;21105;-92
2021/05/13 04:37:14;;;;;;;22.25;10.88;;;;;;;11.37;67.36;99786.15;1653648;86;21209;-93
2021/05/13 04:39:40;;;;;;;14.38;10.38;;;;;;;11.45;67.18;99788.63;1639513;86;21101;-94
2021/05/13 04:42:06;;;;;;;14.40;8.53;;;;;;;11.48;66.97;99776.70;1629444;86;21720;-93
2021/05/13 04:44:35;;;;;;;;;;;;;;;11.50;66.88;99780.80;1643916;85;21149;-92
2021/05/13 04:47:20;;;;;;;17.03;8.80;;;;;;;11.55;66.91;99782.05;1610022;87;20245;-93
2021/05/13 04:49:30;;;;;;;8.07;6.60;;;;;;;11.59;67.12;99788.08;1644389;86;21085;-91
2021/05/13 04:51:56;;;;;;;10.98;7.30;;;;;;;11.78;66.49;99781.05;1646563;86;21319;-89
2021/05/13 04:54:23;;;;;;;8.35;7.70;;;;;;;12.16;66.18;99781.66;1644931;86;21893;-91
2021/05/13 04:56:49;;;;;;;8.98;7.95;;;;;;;12.53;64.08;99782.42;1638734;86;21054;-89
2021/05/13 04:59:15;;;;;;;8.83;8.13;;;;;;;12.82;63.08;99783.66;1639128;86;21077;-90
2021/05/13 05:01:41;;;;;;;9.30;8.43;;;;;;;12.97;62.82;99781.48;1652270;85;21217;-89
2021/05/13 05:04:07;;;;;;;7.17;6.50;;;;;;;13.21;61.50;99783.06;1642128;86;21094;-91
2021/05/13 05:06:33;;;;;;;8.20;7.50;;;;;;;13.47;60.84;99782.03;1655892;86;21093;-90
2021/05/13 05:09:00;;;;;;;;;;;;;;;13.88;59.42;99774.38;1641396;86;21235;-91
2021/05/13 05:11:26;;;;;;;7.40;6.80;;;;;;;13.99;58.38;99773.63;1638948;86;20280;-91
2021/05/13 05:13:52;;;;;;;9.40;7.28;;;;;;;13.98;58.61;99772.02;1643637;86;21243;-91
2021/05/13 05:16:18;;;;;;;7.25;6.55;;;;;;;14.35;57.43;99771.44;1650648;85;21205;-92
2021/05/13 05:18:44;;;;;;;9.23;6.83;;;;;;;14.68;56.90;99770.70;1634837;86;21179;-90
2021/05/13 05:21:11;;;;;;;6.53;5.92;;;;;;;14.97;55.29;99771.69;1620468;87;21203;-90
2021/05/13 05:23:38;;;;;;;6.80;6.15;;;;;;;15.20;54.20;99764.20;1607208;86;21789;-92
2021/05/13 05:26:05;;;;;;;6.80;6.30;;;;;;;15.39;52.83;99768.94;1609863;87;21132;-91
2021/05/13 05:28:32;;;;;;;6.62;6.15;;;;;;;15.56;52.78;99765.02;1597026;88;21092;-92
2021/05/13 05:30:58;;;;;;;6.95;6.37;;;;;;;15.90;52.91;99771.41;1609324;88;21176;-89
2021/05/13 05:33:24;;;;;;;;;;;;;;;16.40;51.33;99767.26;1593214;86;21021;-91
2021/05/13 05:35:50;;;;;;;6.70;6.20;;;;;;;16.72;50.07;99769.44;1636849;86;20215;-92
2021/05/13 05:38:17;;;;;;;6.58;6.08;;;;;;;16.84;49.40;99766.20;1624005;86;21198;-91
2021/05/13 05:40:44;;;;;;;7.35;6.60;;;;;;;16.96;48.80;99766.66;1626887;86;21607;-92
2021/05/13 05:43:10;;;;;;;6.58;5.92;;;;;;;17.05;48.10;99768.69;1632912;86;21104;-92
2021/05/13 05:45:36;;;;;;;6.58;6.08;;;;;;;17.03;48.12;99764.63;1606450;86;21160;-91
2021/05/13 05:48:04;;;;;;;6.30;5.33;;;;;;;16.92;47.37;99764.98;1595702;89;21634;-93
2021/05/13 05:50:35;;;;;;;4.28;3.87;;;;;;;16.46;48.04;99750.69;1591850;89;21111;-90
2021/05/13 05:53:03;;;;;;;5.30;3.52;;;;;;;15.89;48.03;99756.32;1602226;89;21141;-91
2021/05/13 05:55:31;;;;;;;3.70;3.40;;;;;;;15.45;48.97;99755.09;1604185;88;21096;-90
2021/05/13 05:57:58;;;;;;;7.67;5.25;;;;;;;15.25;49.95;99760.27;1606729;88;21120;-91
2021/05/13 06:00:26;;;;;;;9.53;5.42;;;;;;;15.23;50.86;99765.59;1612119;86;21054;-91
2021/05/13 06:02:52;;;;;;;4.60;4.20;;;;;;;15.46;51.81;99764.77;1620062;88;21220;-93
2021/05/13 06:05:18;;;;;;;3.52;2.58;;;;;;;15.89;50.15;99762.23;1616949;88;21077;-91
2021/05/13 06:07:45;;;;;;;4.10;3.90;;;;;;;16.27;48.42;99763.52;1596347;89;21913;-91
2021/05/13 06:10:14;;;;;;;4.45;3.17;;;;;;;16.44;47.59;99756.30;1590713;89;21157;-92
2021/05/13 06:12:43;;;;;;;3.02;2.42;;;;;;;16.63;46.96;99756.09;1636971;85;21088;-90
2021/05/13 06:15:13;;;;;;;2.77;2.58;;;;;;;16.69;47.08;99756.49;1631926;85;21220;-91
2021/05/13 06:17:41;;;;;;;3.35;1.85;;;;;;;16.94;47.33;99756.13;1624392;85;21836;-91
2021/05/13 06:20:18;;;;;;;2.70;1.52;;;;;;;17.07;44.29;99761.72;1571012;88;21167;-91
2021/05/13 06:22:44;;;;;;;2.65;1.75;;;;;;;16.96;45.61;99770.69;1633530;85;21129;-91
2021/05/13 06:25:13;;;;;;;1.30;1.30;;;;;;;17.20;44.67;99757.88;1624544;85;21155;-91
2021/05/13 06:27:41;;;;;;;2.25;1.42;;;;;;;17.56;44.22;99751.66;1642053;85;21724;-90
2021/05/13 06:30:08;;;;;;;1.67;0.85;;;;;;;17.85;42.84;99752.33;1648978;85;21054;-91
2021/05/13 06:32:35;;;;;;;2.83;1.27;;;;;;;17.84;42.28;99750.69;1649416;85;21221;-88
2021/05/13 06:35:01;;;;;;;;;;;;;;;17.63;43.17;99760.36;1634034;85;21058;-91
2021/05/13 06:37:28;;;;;;;2.77;1.20;;;;;;;17.40;44.25;99758.70;1648275;85;20554;-89
2021/05/13 06:39:54;;;;;;;3.20;1.37;;;;;;;17.22;44.51;99765.99;1650108;85;21074;-90
2021/05/13 06:42:20;;;;;;;3.95;1.72;;;;;;;17.13;44.64;99762.88;1594604;88;21121;-90
2021/05/13 06:44:46;;;;;;;0.85;0.80;;;;;;;17.06;44.84;99766.27;1641297;86;21130;-92
2021/05/13 06:47:12;;;;;;;1.47;0.50;;;;;;;16.85;44.69;99764.31;1649758;86;21173;-90
2021/05/13 06:49:40;;;;;;;3.72;0.35;;;;;;;16.49;43.64;99765.81;1668063;85;21218;-89
2021/05/13 06:52:07;;;;;;;5.70;0.70;;;;;;;16.12;44.59;99771.59;1667838;85;21109;-91
2021/05/13 06:54:33;;;;;;;4.15;0.70;;;;;;;15.86;45.26;99775.62;1630807;86;21235;-91
2021/05/13 06:57:00;;;;;;;1.70;1.17;;;;;;;15.66;45.83;99780.00;1698509;82;21735;-91
2021/05/13 06:59:29;;;;;;;0.57;0.57;;;;;;;15.50;46.38;99778.02;1706376;82;21074;-91
2021/05/13 07:02:01;;;;;;;0.50;0.42;;;;;;;15.40;46.30;99775.92;1662228;84;21109;-91
2021/05/13 07:04:52;;;;;;;0.93;0.25;;;;;;;15.42;46.52;99765.76;1707396;83;22090;-90
2021/05/13 07:07:20;;;;;;;3.75;0.30;;;;;;;15.78;44.58;99763.08;1704253;83;21197;-91
2021/05/13 07:09:48;;;;;;;0.62;0.23;;;;;;;15.90;43.41;99762.53;1710051;82;21533;-91
2021/05/13 07:12:14;;;;;;;0.85;0.25;;;;;;;16.02;43.00;99764.65;1696359;83;21097;-90
2021/05/13 07:14:40;;;;;;;;;;;;;;;16.09;42.66;99757.27;1712454;83;21224;-89
2021/05/13 07:17:07;;;;;;;2.05;0.10;;;;;;;15.97;41.99;99768.57;1698119;82;20279;-91
2021/05/13 07:19:33;;;;;;;;;;;;;;;15.91;42.60;99750.72;1701671;83;21171;-90
2021/05/13 07:22:10;;;;;;;0.65;0.25;;;;;;;15.85;42.79;99755.70;1703689;83;20205;-90
2021/05/13 07:24:45;;;;;;;0.20;0.10;;;;;;;15.83;42.97;99751.09;1699070;83;21599;-91
2021/05/13 07:27:17;;;;;;;3.45;0.45;;;;;;;15.92;42.31;99752.36;1682019;83;21693;-92
2021/05/13 07:29:43;;;;;;;0.72;0.10;;;;;;;15.87;42.49;99750.91;1702210;83;21141;-90
2021/05/13 07:32:10;;;;;;;1.95;0.20;;;;;;;15.67;42.59;99731.95;1702200;83;21565;-92
2021/05/13 07:34:36;;;;;;;0.30;0.10;;;;;;;15.83;43.18;99751.09;1662726;82;21570;-90
2021/05/13 07:37:02;;;;;;;3.52;0.37;;;;;;;15.90;43.02;99753.12;1646813;87;21156;-91
2021/05/13 07:39:29;;;;;;;2.77;0.30;;;;;;;16.02;43.58;99747.71;1644436;87;21625;-91
2021/05/13 07:41:55;;;;;;;2.58;0.30;;;;;;;16.09;43.15;99750.55;1640790;87;21060;-88
2021/05/13 07:44:22;;;;;;;0.75;0.20;;;;;;;16.12;43.56;99746.55;1628860;87;21120;-90
2021/05/13 07:46:49;;;;;;;1.45;0.50;;;;;;;16.19;43.19;99743.74;1637944;85;21096;-90
2021/05/13 07:49:15;;;;;;;2.47;0.30;;;;;;;16.29;43.38;99739.38;1637356;85;21558;-89
2021/05/13 07:51:43;;;;;;;5.20;0.62;;;;;;;16.41;41.81;99753.30;1647799;85;21076;-90
2021/05/13 07:54:11;;;;;;;2.05;0.20;;;;;;;16.46;42.19;99739.42;1657654;86;21172;-89
2021/05/13 07:56:38;;;;;;;2.40;0.30;;;;;;;16.30;42.31;99738.84;1655032;85;22105;-91
2021/05/13 07:59:06;;;;;;;3.37;0.30;;;;;;;16.19;42.71;99743.20;1665581;85;21096;-91
2021/05/13 08:01:32;;;;;;;1.17;0.50;;;;;;;16.21;42.55;99751.03;1665107;85;21637;-91
2021/05/13 08:03:58;;;;;;;9.80;0.70;;;;;;;16.21;42.62;99736.25;1670988;85;21048;-90
2021/05/13 08:06:24;;;;;;;1.47;0.45;;;;;;;16.13;43.20;99748.20;1665269;85;21665;-90
2021/05/13 08:08:50;;;;;;;1.75;0.93;;;;;;;16.13;43.36;99736.91;1668034;85;21124;-89
2021/05/13 08:11:16;;;;;;;1.47;0.72;;;;;;;16.23;43.40;99727.41;1665368;85;21123;-91
2021/05/13 08:13:42;;;;;;;3.92;0.50;;;;;;;16.35;43.07;99723.62;1620731;88;21123;-90
2021/05/13 08:16:09;;;;;;;4.67;0.93;;;;;;;16.43;42.06;99733.70;1587002;89;21926;-90
2021/05/13 08:18:34;;;;;;;3.67;0.60;;;;;;;16.34;41.84;99738.11;1576889;88;21125;-88
2021/05/13 08:21:02;;;;;;;1.05;0.62;;;;;;;16.25;42.40;99725.30;1627804;86;21247;-89
2021/05/13 08:23:28;;;;;;;3.80;0.70;;;;;;;16.25;42.27;99731.48;1593753;88;21077;-89
2021/05/13 08:25:54;;;;;;;1.10;0.40;;;;;;;16.23;42.06;99734.13;1597035;88;21175;-90
2021/05/13 08:28:20;;;;;;;5.40;0.78;;;;;;;16.26;42.17;99730.97;1583649;88;21183;-90
2021/05/13 08:30:47;;;;;;;2.83;0.62;;;;;;;16.32;42.33;99740.22;1601431;88;21651;-90
2021/05/13 08:33:13;;;;;;;1.20;0.17;;;;;;;16.41;42.04;99744.70;1580053;88;21199;-89
2021/05/13 08:35:39;;;;;;;2.55;0.28;;;;;;;16.53;40.86;99727.95;1568375;88;21171;-89
2021/05/13 08:38:05;;;;;;;6.53;0.50;;;;;;;16.45;40.56;99749.87;1589566;88;21077;-91
2021/05/13 08:40:31;;;;;;;2.15;0.20;;;;;;;16.33;41.36;99730.27;1575489;88;21117;-90
2021/05/13 08:42:57;;;;;;;0.82;0.40;;;;;;;16.25;41.04;99744.12;1592161;88;21105;-90
2021/05/13 08:45:36;;;;;;;0.93;0.82;;;;;;;16.19;41.30;99752.61;1596240;88;21049;-89
2021/05/13 08:48:02;;;;;;;2.30;0.20;;;;;;;16.09;41.17;99739.80;1589089;88;21129;-91
2021/05/13 08:50:28;;;;;;;3.45;0.53;;;;;;;16.03;41.60;99739.41;1592335;88;21183;-89
2021/05/13 08:52:57;;;;;;;5.62;0.37;;;;;;;16.02;41.37;99749.06;1583901;88;21728;-92
2021/05/13 08:55:23;;;;;;;2.70;0.20;;;;;;;15.93;41.74;99739.20;1578372;88;21129;-90
2021/05/13 08:57:49;;;;;;;5.70;0.35;;;;;;;15.89;42.30;99752.30;1602659;88;21092;-90
2021/05/13 09:00:19;;;;;;;1.20;0.40;;;;;;;15.93;41.93;99725.76;1597133;87;21155;-91
2021/05/13 09:02:50;;;;;;;3.87;0.33;;;;;;;15.96;41.85;99727.45;1596223;88;21189;-89
2021/05/13 09:05:18;;;;;;;1.00;0.42;;;;;;;16.12;41.92;99715.64;1607384;88;21144;-90
2021/05/13 09:07:44;;;;;;;3.42;0.20;;;;;;;16.29;40.92;99741.23;1610649;87;21138;-91
2021/05/13 09:10:13;;;;;;;;;;;;;;;16.43;40.42;99730.48;1613173;87;21179;-89
2021/05/13 09:12:52;;;;;;;1.77;0.20;;;;;;;16.50;39.58;99735.69;1610787;86;20269;-89
2021/05/13 09:15:27;;;;;;;3.52;0.50;;;;;;;16.34;39.06;99727.34;1593217;88;22383;-89
2021/05/13 09:18:01;;;;;;;2.47;0.30;;;;;;;16.08;40.04;99731.43;1595197;88;21207;-91
2021/05/13 09:20:32;;;;;;;6.05;0.50;;;;;;;16.12;40.31;99723.20;1602635;87;21693;-90
2021/05/13 09:23:28;;;;;;;4.67;0.50;;;;;;;16.33;40.25;99729.77;1614757;86;21046;-90
2021/05/13 09:26:09;;;;;;;1.32;0.62;;;;;;;16.43;39.70;99725.64;1623739;87;21790;-91
2021/05/13 09:28:36;;;;;;;1.02;0.35;;;;;;;16.40;39.81;99738.21;1618405;87;21086;-90
2021/05/13 09:31:04;;;;;;;3.45;0.37;;;;;;;16.40;39.79;99728.80;1623542;87;21087;-89
2021/05/13 09:33:38;;;;;;;0.95;0.40;;;;;;;16.43;39.82;99735.86;1612650;87;21122;-89
2021/05/13 09:36:25;;;;;;;1.20;0.30;;;;;;;16.45;39.48;99732.39;1609101;87;22385;-90
2021/05/13 09:38:52;;;;;;;3.42;0.40;;;;;;;16.47;40.12;99734.84;1611219;87;21202;-90
2021/05/13 09:41:34;;;;;;;1.70;0.33;;;;;;;16.47;39.20;99728.93;1605867;87;21674;-91
2021/05/13 09:44:03;;;;;;;2.15;0.57;;;;;;;16.39;39.89;99727.98;1597608;87;21096;-90
2021/05/13 09:46:35;;;;;;;0.30;0.20;;;;;;;16.40;40.29;99715.34;1592553;88;21024;-91
2021/05/13 09:49:05;;;;;;;1.52;0.40;;;;;;;16.52;40.07;99735.75;1618047;87;21794;-92
2021/05/13 09:51:38;;;;;;;1.10;0.28;;;;;;;16.63;39.75;99727.84;1604073;87;21147;-92
2021/05/13 09:54:20;;;;;;;2.60;0.33;;;;;;;16.65;39.72;99726.56;1618993;87;21195;-91
2021/05/13 09:56:52;;;;;;;2.85;0.62;;;;;;;16.65;39.79;99724.38;1629637;87;21075;-90
2021/05/13 09:59:27;;;;;;;0.70;0.57;;;;;;;16.72;40.18;99731.77;1618193;87;21068;-91
2021/05/13 10:02:05;;;;;;;1.77;0.75;;;;;;;16.84;39.71;99746.02;1619976;87;21052;-91
2021/05/13 10:04:32;;;;;;;1.70;0.50;;;;;;;16.71;38.54;99731.50;1603897;87;21678;-92
2021/05/13 10:06:59;;;;;;;0.42;0.40;;;;;;;16.67;39.34;99731.67;1610095;87;21255;-90
2021/05/13 10:09:25;;;;;;;0.88;0.30;;;;;;;16.73;38.84;99714.04;1618321;87;21107;-91
2021/05/13 10:11:58;;;;;;;0.25;0.25;;;;;;;16.77;38.18;99711.68;1586259;87;21056;-90
2021/05/13 10:14:27;;;;;;;1.02;0.40;;;;;;;16.78;38.00;99728.09;1617789;87;21182;-90
2021/05/13 10:16:56;;;;;;;1.75;0.40;;;;;;;16.69;38.09;99716.13;1601260;87;21165;-92
2021/05/13 10:19:32;;;;;;;4.72;0.47;;;;;;;16.76;38.10;99722.69;1637233;86;21291;-91
2021/05/13 10:22:01;;;;;;;0.68;0.40;;;;;;;16.75;38.33;99727.26;1652400;85;21146;-90
2021/05/13 10:24:28;;;;;;;1.95;0.60;;;;;;;16.77;38.55;99721.10;1625913;87;21085;-90
2021/05/13 10:26:54;;;;;;;2.22;0.30;;;;;;;16.85;38.81;99732.02;1662044;85;21397;-91
2021/05/13 10:29:28;;;;;;;;;;;;;;;16.75;37.84;99724.56;1665496;86;21186;-91
2021/05/13 10:32:15;;;;;;;1.82;0.33;;;;;;;16.55;38.01;99715.61;1662090;85;20244;-90
2021/05/13 10:34:57;;;;;;;1.70;0.40;;;;;;;16.41;38.67;99727.22;1620300;88;21226;-90
2021/05/13 10:37:39;;;;;;;1.05;0.30;;;;;;;16.42;39.24;99699.78;1635480;88;21025;-89
2021/05/13 10:40:26;;;;;;;2.75;0.33;;;;;;;16.51;39.44;99735.98;1632944;88;21561;-90
2021/05/13 10:43:06;;;;;;;0.30;0.30;;;;;;;16.60;39.16;99729.70;1636990;88;21024;-90
2021/05/13 10:45:44;;;;;;;2.75;0.20;;;;;;;16.63;39.32;99717.92;1633779;88;21079;-89
2021/05/13 10:48:20;;;;;;;0.93;0.45;;;;;;;16.70;39.00;99709.67;1635160;88;21104;-89
2021/05/13 10:51:03;;;;;;;1.65;0.85;;;;;;;16.69;39.07;99698.64;1629115;86;21164;-91
2021/05/13 10:53:41;;;;;;;4.65;0.95;;;;;;;16.72;39.55;99692.22;1609422;87;21157;-91
2021/05/13 10:56:30;;;;;;;1.20;0.30;;;;;;;16.74;38.96;99690.63;1623015;87;21207;-90
2021/05/13 10:59:11;;;;;;;3.08;0.70;;;;;;;16.79;39.24;99683.19;1605970;88;21692;-92
2021/05/13 11:01:50;;;;;;;0.45;0.45;;;;;;;16.97;38.89;99710.39;1628100;88;21155;-91
2021/05/13 11:04:29;;;;;;;2.22;0.35;;;;;;;16.90;38.48;99685.81;1622918;87;21598;-92
2021/05/13 11:07:01;;;;;;;1.20;0.53;;;;;;;16.86;39.12;99683.33;1624164;88;21162;-90
2021/05/13 11:09:45;;;;;;;1.67;0.42;;;;;;;16.75;39.17;99681.52;1627799;88;21104;-90
2021/05/13 11:12:23;;;;;;;1.77;0.30;;;;;;;16.79;39.46;99678.61;1660264;85;21164;-91
2021/05/13 11:17:53;;;;;;;1.15;0.28;;;;;;;17.09;38.61;99690.94;1667001;85;21136;-90
2021/05/13 11:20:29;;;;;;;1.10;0.40;;;;;;;17.35;38.28;99686.73;1670864;84;21732;-91
2021/05/13 11:23:08;;;;;;;1.62;0.35;;;;;;;17.58;37.51;99707.77;1654427;85;21165;-91
2021/05/13 11:25:42;;;;;;;1.57;0.80;;;;;;;17.63;37.23;99680.35;1665117;85;21108;-91
2021/05/13 11:28:41;;;;;;;1.10;0.40;;;;;;;17.42;37.01;99690.57;1655653;85;21097;-91
2021/05/13 11:31:13;;;;;;;0.68;0.40;;;;;;;17.42;37.01;99690.57;1669616;85;21665;-91
2021/05/13 11:33:59;;;;;;;0.82;0.35;;;;;;;17.24;37.93;99695.19;1655662;85;21724;-91
2021/05/13 11:36:38;;;;;;;5.97;0.30;;;;;;;17.20;38.37;99676.55;1655935;85;21029;-88
2021/05/13 11:39:12;;;;;;;2.40;0.20;;;;;;;17.27;37.69;99687.97;1671737;85;21127;-90
2021/05/13 11:41:49;;;;;;;0.95;0.20;;;;;;;17.22;37.18;99680.35;1655942;85;21115;-91
2021/05/13 11:44:21;;;;;;;2.17;0.72;;;;;;;16.89;37.66;99658.59;1671783;85;21252;-91
2021/05/13 11:46:53;;;;;;;3.12;0.28;;;;;;;17.06;38.33;99670.69;1682512;84;21072;-90
2021/05/13 11:49:20;;;;;;;0.42;0.20;;;;;;;17.22;37.46;99677.12;1659015;85;21179;-91
2021/05/13 11:51:46;;;;;;;0.28;0.20;;;;;;;17.46;36.53;99670.98;1672717;84;21127;-91